<?xml version="1.0" encoding="UTF-8" standalone="no" ?>
<gpx xmlns="http://www.topografix.com/GPX/1/1" xmlns:xsi="http://www.w3.org/2001/XMLSchema-instance" xsi:schemaLocation="http://www.topografix.com/GPX/1/1 http://www.topografix.com/GPX/1/1/gpx.xsd" version="1.1" creator="VisuGPX - https://www.visugpx.com">
  <metadata>
    <name>Randonnée lac du loup</name>
  </metadata>
  <trk>
    <name><![CDATA[Randonnée du 06/05/2023 à 11:18]]></name>
    <trkseg>
      <trkpt lat="45.31401" lon="6.53841">
        <ele>1814</ele>
        <time>2023-05-06T11:18:18+02:00</time>
      </trkpt>
      <trkpt lat="45.31387" lon="6.53836">
        <ele>1812</ele>
        <time>2023-05-06T11:18:58+02:00</time>
      </trkpt>
      <trkpt lat="45.31372" lon="6.53838">
        <ele>1814</ele>
        <time>2023-05-06T11:20:14+02:00</time>
      </trkpt>
      <trkpt lat="45.31357" lon="6.53841">
        <ele>1826</ele>
        <time>2023-05-06T11:20:27+02:00</time>
      </trkpt>
      <trkpt lat="45.31341" lon="6.53838">
        <ele>1829</ele>
        <time>2023-05-06T11:20:42+02:00</time>
      </trkpt>
      <trkpt lat="45.31329" lon="6.53845">
        <ele>1817</ele>
        <time>2023-05-06T11:20:53+02:00</time>
      </trkpt>
      <trkpt lat="45.31314" lon="6.53847">
        <ele>1815</ele>
        <time>2023-05-06T11:21:07+02:00</time>
      </trkpt>
      <trkpt lat="45.31299" lon="6.5385">
        <ele>1816</ele>
        <time>2023-05-06T11:21:20+02:00</time>
      </trkpt>
      <trkpt lat="45.31283" lon="6.53855">
        <ele>1814</ele>
        <time>2023-05-06T11:21:33+02:00</time>
      </trkpt>
      <trkpt lat="45.31269" lon="6.53864">
        <ele>1812</ele>
        <time>2023-05-06T11:21:47+02:00</time>
      </trkpt>
      <trkpt lat="45.31254" lon="6.53873">
        <ele>1813</ele>
        <time>2023-05-06T11:22:02+02:00</time>
      </trkpt>
      <trkpt lat="45.31247" lon="6.53892">
        <ele>1813</ele>
        <time>2023-05-06T11:22:17+02:00</time>
      </trkpt>
      <trkpt lat="45.31247" lon="6.53869">
        <ele>1813</ele>
        <time>2023-05-06T11:22:40+02:00</time>
      </trkpt>
      <trkpt lat="45.31247" lon="6.53848">
        <ele>1814</ele>
        <time>2023-05-06T11:22:53+02:00</time>
      </trkpt>
      <trkpt lat="45.31234" lon="6.53834">
        <ele>1814</ele>
        <time>2023-05-06T11:23:10+02:00</time>
      </trkpt>
      <trkpt lat="45.31225" lon="6.53819">
        <ele>1814</ele>
        <time>2023-05-06T11:23:27+02:00</time>
      </trkpt>
      <trkpt lat="45.31211" lon="6.53818">
        <ele>1818</ele>
        <time>2023-05-06T11:23:46+02:00</time>
      </trkpt>
      <trkpt lat="45.31197" lon="6.53812">
        <ele>1820</ele>
        <time>2023-05-06T11:24:04+02:00</time>
      </trkpt>
      <trkpt lat="45.31184" lon="6.53804">
        <ele>1823</ele>
        <time>2023-05-06T11:24:17+02:00</time>
      </trkpt>
      <trkpt lat="45.31171" lon="6.53792">
        <ele>1825</ele>
        <time>2023-05-06T11:24:33+02:00</time>
      </trkpt>
      <trkpt lat="45.31157" lon="6.53786">
        <ele>1826</ele>
        <time>2023-05-06T11:24:47+02:00</time>
      </trkpt>
      <trkpt lat="45.31143" lon="6.53776">
        <ele>1829</ele>
        <time>2023-05-06T11:25:03+02:00</time>
      </trkpt>
      <trkpt lat="45.31128" lon="6.53768">
        <ele>1832</ele>
        <time>2023-05-06T11:25:21+02:00</time>
      </trkpt>
      <trkpt lat="45.31116" lon="6.53758">
        <ele>1835</ele>
        <time>2023-05-06T11:25:36+02:00</time>
      </trkpt>
      <trkpt lat="45.31104" lon="6.53746">
        <ele>1838</ele>
        <time>2023-05-06T11:25:56+02:00</time>
      </trkpt>
      <trkpt lat="45.31091" lon="6.53752">
        <ele>1838</ele>
        <time>2023-05-06T11:26:12+02:00</time>
      </trkpt>
      <trkpt lat="45.31076" lon="6.53747">
        <ele>1840</ele>
        <time>2023-05-06T11:26:29+02:00</time>
      </trkpt>
      <trkpt lat="45.31064" lon="6.53739">
        <ele>1843</ele>
        <time>2023-05-06T11:27:04+02:00</time>
      </trkpt>
      <trkpt lat="45.3105" lon="6.53741">
        <ele>1844</ele>
        <time>2023-05-06T11:27:48+02:00</time>
      </trkpt>
      <trkpt lat="45.31036" lon="6.53743">
        <ele>1845</ele>
        <time>2023-05-06T11:28:02+02:00</time>
      </trkpt>
      <trkpt lat="45.31025" lon="6.53757">
        <ele>1848</ele>
        <time>2023-05-06T11:28:18+02:00</time>
      </trkpt>
      <trkpt lat="45.31016" lon="6.53772">
        <ele>1849</ele>
        <time>2023-05-06T11:28:32+02:00</time>
      </trkpt>
      <trkpt lat="45.31008" lon="6.53788">
        <ele>1850</ele>
        <time>2023-05-06T11:28:49+02:00</time>
      </trkpt>
      <trkpt lat="45.30994" lon="6.53793">
        <ele>1853</ele>
        <time>2023-05-06T11:29:10+02:00</time>
      </trkpt>
      <trkpt lat="45.30981" lon="6.53801">
        <ele>1854</ele>
        <time>2023-05-06T11:29:27+02:00</time>
      </trkpt>
      <trkpt lat="45.30967" lon="6.53803">
        <ele>1856</ele>
        <time>2023-05-06T11:29:42+02:00</time>
      </trkpt>
      <trkpt lat="45.30951" lon="6.53801">
        <ele>1858</ele>
        <time>2023-05-06T11:30:20+02:00</time>
      </trkpt>
      <trkpt lat="45.30937" lon="6.53803">
        <ele>1861</ele>
        <time>2023-05-06T11:30:40+02:00</time>
      </trkpt>
      <trkpt lat="45.30922" lon="6.53812">
        <ele>1865</ele>
        <time>2023-05-06T11:31:02+02:00</time>
      </trkpt>
      <trkpt lat="45.3091" lon="6.53826">
        <ele>1867</ele>
        <time>2023-05-06T11:31:20+02:00</time>
      </trkpt>
      <trkpt lat="45.30895" lon="6.53829">
        <ele>1870</ele>
        <time>2023-05-06T11:31:40+02:00</time>
      </trkpt>
      <trkpt lat="45.30881" lon="6.53833">
        <ele>1873</ele>
        <time>2023-05-06T11:31:58+02:00</time>
      </trkpt>
      <trkpt lat="45.30868" lon="6.53843">
        <ele>1875</ele>
        <time>2023-05-06T11:32:13+02:00</time>
      </trkpt>
      <trkpt lat="45.30854" lon="6.53847">
        <ele>1877</ele>
        <time>2023-05-06T11:33:33+02:00</time>
      </trkpt>
      <trkpt lat="45.3084" lon="6.53841">
        <ele>1878</ele>
        <time>2023-05-06T11:33:45+02:00</time>
      </trkpt>
      <trkpt lat="45.30827" lon="6.53844">
        <ele>1876</ele>
        <time>2023-05-06T11:34:00+02:00</time>
      </trkpt>
      <trkpt lat="45.3081" lon="6.53847">
        <ele>1878</ele>
        <time>2023-05-06T11:34:22+02:00</time>
      </trkpt>
      <trkpt lat="45.30796" lon="6.5385">
        <ele>1878</ele>
        <time>2023-05-06T11:34:34+02:00</time>
      </trkpt>
      <trkpt lat="45.30782" lon="6.53849">
        <ele>1879</ele>
        <time>2023-05-06T11:34:48+02:00</time>
      </trkpt>
      <trkpt lat="45.30769" lon="6.53849">
        <ele>1878</ele>
        <time>2023-05-06T11:35:06+02:00</time>
      </trkpt>
      <trkpt lat="45.30755" lon="6.53848">
        <ele>1877</ele>
        <time>2023-05-06T11:35:17+02:00</time>
      </trkpt>
      <trkpt lat="45.30741" lon="6.53846">
        <ele>1877</ele>
        <time>2023-05-06T11:35:31+02:00</time>
      </trkpt>
      <trkpt lat="45.30726" lon="6.53844">
        <ele>1878</ele>
        <time>2023-05-06T11:35:46+02:00</time>
      </trkpt>
      <trkpt lat="45.30713" lon="6.53839">
        <ele>1878</ele>
        <time>2023-05-06T11:36:00+02:00</time>
      </trkpt>
      <trkpt lat="45.307" lon="6.53832">
        <ele>1881</ele>
        <time>2023-05-06T11:36:20+02:00</time>
      </trkpt>
      <trkpt lat="45.30687" lon="6.53821">
        <ele>1882</ele>
        <time>2023-05-06T11:36:37+02:00</time>
      </trkpt>
      <trkpt lat="45.30674" lon="6.53809">
        <ele>1885</ele>
        <time>2023-05-06T11:36:56+02:00</time>
      </trkpt>
      <trkpt lat="45.3066" lon="6.53804">
        <ele>1887</ele>
        <time>2023-05-06T11:37:16+02:00</time>
      </trkpt>
      <trkpt lat="45.30657" lon="6.53785">
        <ele>1891</ele>
        <time>2023-05-06T11:37:34+02:00</time>
      </trkpt>
      <trkpt lat="45.30644" lon="6.53774">
        <ele>1894</ele>
        <time>2023-05-06T11:37:53+02:00</time>
      </trkpt>
      <trkpt lat="45.30634" lon="6.53759">
        <ele>1897</ele>
        <time>2023-05-06T11:38:45+02:00</time>
      </trkpt>
      <trkpt lat="45.30623" lon="6.53744">
        <ele>1901</ele>
        <time>2023-05-06T11:39:04+02:00</time>
      </trkpt>
      <trkpt lat="45.3061" lon="6.53737">
        <ele>1907</ele>
        <time>2023-05-06T11:39:52+02:00</time>
      </trkpt>
      <trkpt lat="45.30595" lon="6.5373">
        <ele>1911</ele>
        <time>2023-05-06T11:40:15+02:00</time>
      </trkpt>
      <trkpt lat="45.30579" lon="6.53727">
        <ele>1913</ele>
        <time>2023-05-06T11:41:00+02:00</time>
      </trkpt>
      <trkpt lat="45.30563" lon="6.53722">
        <ele>1914</ele>
        <time>2023-05-06T11:41:13+02:00</time>
      </trkpt>
      <trkpt lat="45.3055" lon="6.53716">
        <ele>1916</ele>
        <time>2023-05-06T11:41:29+02:00</time>
      </trkpt>
      <trkpt lat="45.30536" lon="6.53711">
        <ele>1919</ele>
        <time>2023-05-06T11:41:47+02:00</time>
      </trkpt>
      <trkpt lat="45.30522" lon="6.53718">
        <ele>1924</ele>
        <time>2023-05-06T11:42:14+02:00</time>
      </trkpt>
      <trkpt lat="45.30507" lon="6.53719">
        <ele>1930</ele>
        <time>2023-05-06T11:42:36+02:00</time>
      </trkpt>
      <trkpt lat="45.30494" lon="6.53724">
        <ele>1933</ele>
        <time>2023-05-06T11:42:57+02:00</time>
      </trkpt>
      <trkpt lat="45.30481" lon="6.53717">
        <ele>1937</ele>
        <time>2023-05-06T11:43:18+02:00</time>
      </trkpt>
      <trkpt lat="45.30465" lon="6.53712">
        <ele>1943</ele>
        <time>2023-05-06T11:43:48+02:00</time>
      </trkpt>
      <trkpt lat="45.30452" lon="6.53709">
        <ele>1945</ele>
        <time>2023-05-06T11:44:07+02:00</time>
      </trkpt>
      <trkpt lat="45.30438" lon="6.53715">
        <ele>1947</ele>
        <time>2023-05-06T11:44:36+02:00</time>
      </trkpt>
      <trkpt lat="45.30427" lon="6.53726">
        <ele>1949</ele>
        <time>2023-05-06T11:45:00+02:00</time>
      </trkpt>
      <trkpt lat="45.30413" lon="6.53729">
        <ele>1947</ele>
        <time>2023-05-06T11:45:23+02:00</time>
      </trkpt>
      <trkpt lat="45.304" lon="6.53732">
        <ele>1948</ele>
        <time>2023-05-06T11:45:41+02:00</time>
      </trkpt>
      <trkpt lat="45.30385" lon="6.53738">
        <ele>1949</ele>
        <time>2023-05-06T11:45:57+02:00</time>
      </trkpt>
      <trkpt lat="45.30372" lon="6.53737">
        <ele>1948</ele>
        <time>2023-05-06T11:46:13+02:00</time>
      </trkpt>
      <trkpt lat="45.30357" lon="6.53738">
        <ele>1949</ele>
        <time>2023-05-06T11:46:32+02:00</time>
      </trkpt>
      <trkpt lat="45.30343" lon="6.5374">
        <ele>1948</ele>
        <time>2023-05-06T11:46:46+02:00</time>
      </trkpt>
      <trkpt lat="45.30329" lon="6.5374">
        <ele>1947</ele>
        <time>2023-05-06T11:47:03+02:00</time>
      </trkpt>
      <trkpt lat="45.30315" lon="6.53732">
        <ele>1947</ele>
        <time>2023-05-06T11:47:17+02:00</time>
      </trkpt>
      <trkpt lat="45.30302" lon="6.53726">
        <ele>1951</ele>
        <time>2023-05-06T11:47:36+02:00</time>
      </trkpt>
      <trkpt lat="45.30291" lon="6.53713">
        <ele>1956</ele>
        <time>2023-05-06T11:48:01+02:00</time>
      </trkpt>
      <trkpt lat="45.30277" lon="6.53706">
        <ele>1957</ele>
        <time>2023-05-06T11:48:33+02:00</time>
      </trkpt>
      <trkpt lat="45.30263" lon="6.53709">
        <ele>1956</ele>
        <time>2023-05-06T11:48:52+02:00</time>
      </trkpt>
      <trkpt lat="45.30247" lon="6.53717">
        <ele>1956</ele>
        <time>2023-05-06T11:49:12+02:00</time>
      </trkpt>
      <trkpt lat="45.30233" lon="6.5372">
        <ele>1958</ele>
        <time>2023-05-06T11:49:30+02:00</time>
      </trkpt>
      <trkpt lat="45.30218" lon="6.53712">
        <ele>1959</ele>
        <time>2023-05-06T11:49:48+02:00</time>
      </trkpt>
      <trkpt lat="45.30205" lon="6.53705">
        <ele>1962</ele>
        <time>2023-05-06T11:50:06+02:00</time>
      </trkpt>
      <trkpt lat="45.30192" lon="6.53695">
        <ele>1964</ele>
        <time>2023-05-06T11:50:26+02:00</time>
      </trkpt>
      <trkpt lat="45.30182" lon="6.53681">
        <ele>1966</ele>
        <time>2023-05-06T11:50:43+02:00</time>
      </trkpt>
      <trkpt lat="45.30172" lon="6.53668">
        <ele>1968</ele>
        <time>2023-05-06T11:51:24+02:00</time>
      </trkpt>
      <trkpt lat="45.3016" lon="6.53653">
        <ele>1969</ele>
        <time>2023-05-06T11:51:45+02:00</time>
      </trkpt>
      <trkpt lat="45.3015" lon="6.53641">
        <ele>1971</ele>
        <time>2023-05-06T11:52:02+02:00</time>
      </trkpt>
      <trkpt lat="45.30136" lon="6.5363">
        <ele>1972</ele>
        <time>2023-05-06T11:52:20+02:00</time>
      </trkpt>
      <trkpt lat="45.30124" lon="6.53617">
        <ele>1973</ele>
        <time>2023-05-06T11:52:37+02:00</time>
      </trkpt>
      <trkpt lat="45.3011" lon="6.53615">
        <ele>1975</ele>
        <time>2023-05-06T11:52:53+02:00</time>
      </trkpt>
      <trkpt lat="45.30096" lon="6.53616">
        <ele>1976</ele>
        <time>2023-05-06T11:53:09+02:00</time>
      </trkpt>
      <trkpt lat="45.30083" lon="6.53611">
        <ele>1976</ele>
        <time>2023-05-06T11:53:25+02:00</time>
      </trkpt>
      <trkpt lat="45.3007" lon="6.53602">
        <ele>1977</ele>
        <time>2023-05-06T11:53:41+02:00</time>
      </trkpt>
      <trkpt lat="45.30058" lon="6.53591">
        <ele>1979</ele>
        <time>2023-05-06T11:53:59+02:00</time>
      </trkpt>
      <trkpt lat="45.30045" lon="6.53579">
        <ele>1982</ele>
        <time>2023-05-06T11:54:25+02:00</time>
      </trkpt>
      <trkpt lat="45.30036" lon="6.53563">
        <ele>1986</ele>
        <time>2023-05-06T11:54:47+02:00</time>
      </trkpt>
      <trkpt lat="45.30025" lon="6.5355">
        <ele>1987</ele>
        <time>2023-05-06T11:55:04+02:00</time>
      </trkpt>
      <trkpt lat="45.30018" lon="6.53531">
        <ele>1990</ele>
        <time>2023-05-06T11:55:28+02:00</time>
      </trkpt>
      <trkpt lat="45.30013" lon="6.53511">
        <ele>1993</ele>
        <time>2023-05-06T11:57:30+02:00</time>
      </trkpt>
      <trkpt lat="45.30004" lon="6.53492">
        <ele>1993</ele>
        <time>2023-05-06T11:57:47+02:00</time>
      </trkpt>
      <trkpt lat="45.29998" lon="6.53473">
        <ele>1993</ele>
        <time>2023-05-06T11:58:06+02:00</time>
      </trkpt>
      <trkpt lat="45.29989" lon="6.53455">
        <ele>1994</ele>
        <time>2023-05-06T11:58:25+02:00</time>
      </trkpt>
      <trkpt lat="45.29977" lon="6.5344">
        <ele>1995</ele>
        <time>2023-05-06T11:58:44+02:00</time>
      </trkpt>
      <trkpt lat="45.29966" lon="6.53429">
        <ele>1998</ele>
        <time>2023-05-06T11:59:01+02:00</time>
      </trkpt>
      <trkpt lat="45.2996" lon="6.53412">
        <ele>1998</ele>
        <time>2023-05-06T11:59:15+02:00</time>
      </trkpt>
      <trkpt lat="45.29951" lon="6.53396">
        <ele>1999</ele>
        <time>2023-05-06T11:59:36+02:00</time>
      </trkpt>
      <trkpt lat="45.29941" lon="6.5338">
        <ele>2001</ele>
        <time>2023-05-06T12:00:10+02:00</time>
      </trkpt>
      <trkpt lat="45.29925" lon="6.53379">
        <ele>2001</ele>
        <time>2023-05-06T12:01:09+02:00</time>
      </trkpt>
      <trkpt lat="45.2991" lon="6.53382">
        <ele>2001</ele>
        <time>2023-05-06T12:01:24+02:00</time>
      </trkpt>
      <trkpt lat="45.29898" lon="6.53396">
        <ele>1999</ele>
        <time>2023-05-06T12:01:43+02:00</time>
      </trkpt>
      <trkpt lat="45.29892" lon="6.53418">
        <ele>1998</ele>
        <time>2023-05-06T12:02:29+02:00</time>
      </trkpt>
      <trkpt lat="45.29882" lon="6.53434">
        <ele>2002</ele>
        <time>2023-05-06T12:02:44+02:00</time>
      </trkpt>
      <trkpt lat="45.29868" lon="6.53428">
        <ele>2006</ele>
        <time>2023-05-06T12:03:11+02:00</time>
      </trkpt>
      <trkpt lat="45.29855" lon="6.53417">
        <ele>2009</ele>
        <time>2023-05-06T12:03:36+02:00</time>
      </trkpt>
      <trkpt lat="45.29841" lon="6.53409">
        <ele>2013</ele>
        <time>2023-05-06T12:04:25+02:00</time>
      </trkpt>
      <trkpt lat="45.29825" lon="6.53411">
        <ele>2018</ele>
        <time>2023-05-06T12:05:00+02:00</time>
      </trkpt>
      <trkpt lat="45.29811" lon="6.53406">
        <ele>2021</ele>
        <time>2023-05-06T12:05:43+02:00</time>
      </trkpt>
      <trkpt lat="45.29797" lon="6.53409">
        <ele>2021</ele>
        <time>2023-05-06T12:06:15+02:00</time>
      </trkpt>
      <trkpt lat="45.29783" lon="6.53411">
        <ele>2024</ele>
        <time>2023-05-06T12:06:47+02:00</time>
      </trkpt>
      <trkpt lat="45.29768" lon="6.53414">
        <ele>2027</ele>
        <time>2023-05-06T12:07:21+02:00</time>
      </trkpt>
      <trkpt lat="45.29753" lon="6.5342">
        <ele>2030</ele>
        <time>2023-05-06T12:08:04+02:00</time>
      </trkpt>
      <trkpt lat="45.29741" lon="6.53431">
        <ele>2029</ele>
        <time>2023-05-06T12:08:28+02:00</time>
      </trkpt>
      <trkpt lat="45.29727" lon="6.53426">
        <ele>2031</ele>
        <time>2023-05-06T12:08:47+02:00</time>
      </trkpt>
      <trkpt lat="45.29712" lon="6.53428">
        <ele>2034</ele>
        <time>2023-05-06T12:09:09+02:00</time>
      </trkpt>
      <trkpt lat="45.29696" lon="6.53422">
        <ele>2037</ele>
        <time>2023-05-06T12:09:35+02:00</time>
      </trkpt>
      <trkpt lat="45.29681" lon="6.53418">
        <ele>2040</ele>
        <time>2023-05-06T12:09:51+02:00</time>
      </trkpt>
      <trkpt lat="45.29667" lon="6.53413">
        <ele>2042</ele>
        <time>2023-05-06T12:10:10+02:00</time>
      </trkpt>
      <trkpt lat="45.29653" lon="6.53404">
        <ele>2043</ele>
        <time>2023-05-06T12:10:27+02:00</time>
      </trkpt>
      <trkpt lat="45.2964" lon="6.53394">
        <ele>2043</ele>
        <time>2023-05-06T12:10:41+02:00</time>
      </trkpt>
      <trkpt lat="45.29631" lon="6.53376">
        <ele>2043</ele>
        <time>2023-05-06T12:10:55+02:00</time>
      </trkpt>
      <trkpt lat="45.29625" lon="6.53356">
        <ele>2043</ele>
        <time>2023-05-06T12:11:09+02:00</time>
      </trkpt>
      <trkpt lat="45.29614" lon="6.5334">
        <ele>2045</ele>
        <time>2023-05-06T12:11:26+02:00</time>
      </trkpt>
      <trkpt lat="45.29601" lon="6.53335">
        <ele>2048</ele>
        <time>2023-05-06T12:11:45+02:00</time>
      </trkpt>
      <trkpt lat="45.29587" lon="6.53328">
        <ele>2051</ele>
        <time>2023-05-06T12:12:07+02:00</time>
      </trkpt>
      <trkpt lat="45.29575" lon="6.53317">
        <ele>2055</ele>
        <time>2023-05-06T12:12:26+02:00</time>
      </trkpt>
      <trkpt lat="45.29562" lon="6.53305">
        <ele>2058</ele>
        <time>2023-05-06T12:12:45+02:00</time>
      </trkpt>
      <trkpt lat="45.29552" lon="6.5329">
        <ele>2062</ele>
        <time>2023-05-06T12:13:06+02:00</time>
      </trkpt>
      <trkpt lat="45.2954" lon="6.53276">
        <ele>2065</ele>
        <time>2023-05-06T12:13:29+02:00</time>
      </trkpt>
      <trkpt lat="45.29526" lon="6.53274">
        <ele>2068</ele>
        <time>2023-05-06T12:13:52+02:00</time>
      </trkpt>
      <trkpt lat="45.29512" lon="6.53267">
        <ele>2070</ele>
        <time>2023-05-06T12:14:12+02:00</time>
      </trkpt>
      <trkpt lat="45.29503" lon="6.53251">
        <ele>2072</ele>
        <time>2023-05-06T12:14:54+02:00</time>
      </trkpt>
      <trkpt lat="45.29497" lon="6.53233">
        <ele>2073</ele>
        <time>2023-05-06T12:15:08+02:00</time>
      </trkpt>
      <trkpt lat="45.29499" lon="6.53212">
        <ele>2074</ele>
        <time>2023-05-06T12:15:22+02:00</time>
      </trkpt>
      <trkpt lat="45.29489" lon="6.53197">
        <ele>2079</ele>
        <time>2023-05-06T12:15:44+02:00</time>
      </trkpt>
      <trkpt lat="45.29479" lon="6.53183">
        <ele>2080</ele>
        <time>2023-05-06T12:16:03+02:00</time>
      </trkpt>
      <trkpt lat="45.29466" lon="6.53176">
        <ele>2082</ele>
        <time>2023-05-06T12:16:22+02:00</time>
      </trkpt>
      <trkpt lat="45.29453" lon="6.53174">
        <ele>2086</ele>
        <time>2023-05-06T12:16:48+02:00</time>
      </trkpt>
      <trkpt lat="45.2944" lon="6.53164">
        <ele>2089</ele>
        <time>2023-05-06T12:17:12+02:00</time>
      </trkpt>
      <trkpt lat="45.29427" lon="6.53158">
        <ele>2091</ele>
        <time>2023-05-06T12:17:49+02:00</time>
      </trkpt>
      <trkpt lat="45.29421" lon="6.5314">
        <ele>2094</ele>
        <time>2023-05-06T12:18:29+02:00</time>
      </trkpt>
      <trkpt lat="45.29409" lon="6.53127">
        <ele>2094</ele>
        <time>2023-05-06T12:18:45+02:00</time>
      </trkpt>
      <trkpt lat="45.29395" lon="6.5312">
        <ele>2095</ele>
        <time>2023-05-06T12:19:02+02:00</time>
      </trkpt>
      <trkpt lat="45.29382" lon="6.5311">
        <ele>2094</ele>
        <time>2023-05-06T12:19:23+02:00</time>
      </trkpt>
      <trkpt lat="45.29368" lon="6.53103">
        <ele>2095</ele>
        <time>2023-05-06T12:19:37+02:00</time>
      </trkpt>
      <trkpt lat="45.29354" lon="6.53098">
        <ele>2094</ele>
        <time>2023-05-06T12:19:53+02:00</time>
      </trkpt>
      <trkpt lat="45.2934" lon="6.53087">
        <ele>2094</ele>
        <time>2023-05-06T12:20:48+02:00</time>
      </trkpt>
      <trkpt lat="45.29333" lon="6.53069">
        <ele>2095</ele>
        <time>2023-05-06T12:21:03+02:00</time>
      </trkpt>
      <trkpt lat="45.29331" lon="6.53048">
        <ele>2096</ele>
        <time>2023-05-06T12:21:19+02:00</time>
      </trkpt>
      <trkpt lat="45.29323" lon="6.53066">
        <ele>2093</ele>
        <time>2023-05-06T12:23:27+02:00</time>
      </trkpt>
      <trkpt lat="45.29308" lon="6.53061">
        <ele>2089</ele>
        <time>2023-05-06T12:23:44+02:00</time>
      </trkpt>
      <trkpt lat="45.29294" lon="6.53057">
        <ele>2087</ele>
        <time>2023-05-06T12:23:57+02:00</time>
      </trkpt>
      <trkpt lat="45.2928" lon="6.53053">
        <ele>2086</ele>
        <time>2023-05-06T12:24:17+02:00</time>
      </trkpt>
      <trkpt lat="45.29267" lon="6.53049">
        <ele>2086</ele>
        <time>2023-05-06T12:24:33+02:00</time>
      </trkpt>
      <trkpt lat="45.29252" lon="6.53039">
        <ele>2086</ele>
        <time>2023-05-06T12:24:49+02:00</time>
      </trkpt>
      <trkpt lat="45.29242" lon="6.53023">
        <ele>2085</ele>
        <time>2023-05-06T12:25:07+02:00</time>
      </trkpt>
      <trkpt lat="45.29232" lon="6.5301">
        <ele>2085</ele>
        <time>2023-05-06T12:25:25+02:00</time>
      </trkpt>
      <trkpt lat="45.29219" lon="6.52996">
        <ele>2084</ele>
        <time>2023-05-06T12:25:39+02:00</time>
      </trkpt>
      <trkpt lat="45.2921" lon="6.52979">
        <ele>2084</ele>
        <time>2023-05-06T12:25:55+02:00</time>
      </trkpt>
      <trkpt lat="45.29199" lon="6.52963">
        <ele>2084</ele>
        <time>2023-05-06T12:26:12+02:00</time>
      </trkpt>
      <trkpt lat="45.29193" lon="6.52944">
        <ele>2084</ele>
        <time>2023-05-06T12:26:28+02:00</time>
      </trkpt>
      <trkpt lat="45.29188" lon="6.52926">
        <ele>2082</ele>
        <time>2023-05-06T12:26:46+02:00</time>
      </trkpt>
      <trkpt lat="45.29181" lon="6.52905">
        <ele>2083</ele>
        <time>2023-05-06T12:27:25+02:00</time>
      </trkpt>
      <trkpt lat="45.29171" lon="6.52887">
        <ele>2082</ele>
        <time>2023-05-06T12:27:39+02:00</time>
      </trkpt>
      <trkpt lat="45.29165" lon="6.5287">
        <ele>2082</ele>
        <time>2023-05-06T12:58:27+02:00</time>
      </trkpt>
      <trkpt lat="45.29157" lon="6.52854">
        <ele>2082</ele>
        <time>2023-05-06T12:58:59+02:00</time>
      </trkpt>
      <trkpt lat="45.29145" lon="6.5284">
        <ele>2082</ele>
        <time>2023-05-06T12:59:25+02:00</time>
      </trkpt>
      <trkpt lat="45.29136" lon="6.52825">
        <ele>2082</ele>
        <time>2023-05-06T13:00:06+02:00</time>
      </trkpt>
      <trkpt lat="45.29125" lon="6.52811">
        <ele>2082</ele>
        <time>2023-05-06T13:00:23+02:00</time>
      </trkpt>
      <trkpt lat="45.29111" lon="6.52804">
        <ele>2082</ele>
        <time>2023-05-06T13:00:40+02:00</time>
      </trkpt>
      <trkpt lat="45.29098" lon="6.52799">
        <ele>2083</ele>
        <time>2023-05-06T13:01:00+02:00</time>
      </trkpt>
      <trkpt lat="45.29084" lon="6.528">
        <ele>2083</ele>
        <time>2023-05-06T13:01:18+02:00</time>
      </trkpt>
      <trkpt lat="45.2907" lon="6.52793">
        <ele>2083</ele>
        <time>2023-05-06T13:01:34+02:00</time>
      </trkpt>
      <trkpt lat="45.29055" lon="6.52789">
        <ele>2085</ele>
        <time>2023-05-06T13:01:56+02:00</time>
      </trkpt>
      <trkpt lat="45.29041" lon="6.5278">
        <ele>2085</ele>
        <time>2023-05-06T13:02:19+02:00</time>
      </trkpt>
      <trkpt lat="45.29029" lon="6.52771">
        <ele>2086</ele>
        <time>2023-05-06T13:02:37+02:00</time>
      </trkpt>
      <trkpt lat="45.29017" lon="6.5276">
        <ele>2085</ele>
        <time>2023-05-06T13:02:55+02:00</time>
      </trkpt>
      <trkpt lat="45.29004" lon="6.52751">
        <ele>2083</ele>
        <time>2023-05-06T13:03:17+02:00</time>
      </trkpt>
      <trkpt lat="45.28991" lon="6.52741">
        <ele>2082</ele>
        <time>2023-05-06T13:03:34+02:00</time>
      </trkpt>
      <trkpt lat="45.28982" lon="6.52726">
        <ele>2083</ele>
        <time>2023-05-06T13:03:53+02:00</time>
      </trkpt>
      <trkpt lat="45.28969" lon="6.52715">
        <ele>2084</ele>
        <time>2023-05-06T13:04:19+02:00</time>
      </trkpt>
      <trkpt lat="45.28964" lon="6.52696">
        <ele>2086</ele>
        <time>2023-05-06T13:05:52+02:00</time>
      </trkpt>
      <trkpt lat="45.28959" lon="6.52679">
        <ele>2087</ele>
        <time>2023-05-06T13:06:14+02:00</time>
      </trkpt>
      <trkpt lat="45.28948" lon="6.52666">
        <ele>2088</ele>
        <time>2023-05-06T13:08:10+02:00</time>
      </trkpt>
      <trkpt lat="45.2894" lon="6.52651">
        <ele>2093</ele>
        <time>2023-05-06T13:08:30+02:00</time>
      </trkpt>
      <trkpt lat="45.28926" lon="6.52644">
        <ele>2096</ele>
        <time>2023-05-06T13:08:59+02:00</time>
      </trkpt>
      <trkpt lat="45.28921" lon="6.52625">
        <ele>2101</ele>
        <time>2023-05-06T13:09:38+02:00</time>
      </trkpt>
      <trkpt lat="45.28917" lon="6.52604">
        <ele>2102</ele>
        <time>2023-05-06T13:09:59+02:00</time>
      </trkpt>
      <trkpt lat="45.28929" lon="6.52613">
        <ele>2106</ele>
        <time>2023-05-06T13:11:18+02:00</time>
      </trkpt>
      <trkpt lat="45.28923" lon="6.52592">
        <ele>2110</ele>
        <time>2023-05-06T13:11:34+02:00</time>
      </trkpt>
      <trkpt lat="45.28916" lon="6.52572">
        <ele>2115</ele>
        <time>2023-05-06T13:12:35+02:00</time>
      </trkpt>
      <trkpt lat="45.28922" lon="6.52554">
        <ele>2121</ele>
        <time>2023-05-06T13:13:04+02:00</time>
      </trkpt>
      <trkpt lat="45.28927" lon="6.52575">
        <ele>2123</ele>
        <time>2023-05-06T13:13:31+02:00</time>
      </trkpt>
      <trkpt lat="45.28944" lon="6.52583">
        <ele>2123</ele>
        <time>2023-05-06T13:13:52+02:00</time>
      </trkpt>
      <trkpt lat="45.28956" lon="6.52594">
        <ele>2126</ele>
        <time>2023-05-06T13:14:07+02:00</time>
      </trkpt>
      <trkpt lat="45.28949" lon="6.52576">
        <ele>2124</ele>
        <time>2023-05-06T13:16:07+02:00</time>
      </trkpt>
      <trkpt lat="45.28935" lon="6.52564">
        <ele>2123</ele>
        <time>2023-05-06T13:16:21+02:00</time>
      </trkpt>
      <trkpt lat="45.28928" lon="6.52548">
        <ele>2122</ele>
        <time>2023-05-06T13:16:41+02:00</time>
      </trkpt>
      <trkpt lat="45.28927" lon="6.52526">
        <ele>2123</ele>
        <time>2023-05-06T13:16:54+02:00</time>
      </trkpt>
      <trkpt lat="45.28912" lon="6.52528">
        <ele>2124</ele>
        <time>2023-05-06T13:17:24+02:00</time>
      </trkpt>
      <trkpt lat="45.28898" lon="6.52524">
        <ele>2122</ele>
        <time>2023-05-06T13:17:52+02:00</time>
      </trkpt>
      <trkpt lat="45.28885" lon="6.52516">
        <ele>2122</ele>
        <time>2023-05-06T13:18:06+02:00</time>
      </trkpt>
      <trkpt lat="45.28872" lon="6.52513">
        <ele>2122</ele>
        <time>2023-05-06T13:18:31+02:00</time>
      </trkpt>
      <trkpt lat="45.28856" lon="6.52513">
        <ele>2122</ele>
        <time>2023-05-06T13:18:48+02:00</time>
      </trkpt>
      <trkpt lat="45.28842" lon="6.52511">
        <ele>2122</ele>
        <time>2023-05-06T13:19:05+02:00</time>
      </trkpt>
      <trkpt lat="45.2883" lon="6.525">
        <ele>2124</ele>
        <time>2023-05-06T13:19:36+02:00</time>
      </trkpt>
      <trkpt lat="45.28816" lon="6.52489">
        <ele>2125</ele>
        <time>2023-05-06T13:20:11+02:00</time>
      </trkpt>
      <trkpt lat="45.28801" lon="6.52487">
        <ele>2126</ele>
        <time>2023-05-06T13:20:46+02:00</time>
      </trkpt>
      <trkpt lat="45.28811" lon="6.52474">
        <ele>2130</ele>
        <time>2023-05-06T13:24:38+02:00</time>
      </trkpt>
      <trkpt lat="45.28824" lon="6.52482">
        <ele>2127</ele>
        <time>2023-05-06T13:26:35+02:00</time>
      </trkpt>
      <trkpt lat="45.28838" lon="6.52487">
        <ele>2129</ele>
        <time>2023-05-06T13:26:54+02:00</time>
      </trkpt>
      <trkpt lat="45.28849" lon="6.52501">
        <ele>2126</ele>
        <time>2023-05-06T13:27:19+02:00</time>
      </trkpt>
      <trkpt lat="45.28863" lon="6.52508">
        <ele>2124</ele>
        <time>2023-05-06T13:27:42+02:00</time>
      </trkpt>
      <trkpt lat="45.28874" lon="6.52524">
        <ele>2121</ele>
        <time>2023-05-06T13:28:04+02:00</time>
      </trkpt>
      <trkpt lat="45.28887" lon="6.52529">
        <ele>2121</ele>
        <time>2023-05-06T13:28:28+02:00</time>
      </trkpt>
      <trkpt lat="45.28903" lon="6.52534">
        <ele>2122</ele>
        <time>2023-05-06T13:28:44+02:00</time>
      </trkpt>
      <trkpt lat="45.28918" lon="6.52532">
        <ele>2123</ele>
        <time>2023-05-06T13:29:30+02:00</time>
      </trkpt>
      <trkpt lat="45.28931" lon="6.52524">
        <ele>2123</ele>
        <time>2023-05-06T13:30:16+02:00</time>
      </trkpt>
      <trkpt lat="45.28944" lon="6.52512">
        <ele>2122</ele>
        <time>2023-05-06T13:30:31+02:00</time>
      </trkpt>
      <trkpt lat="45.28959" lon="6.52507">
        <ele>2123</ele>
        <time>2023-05-06T13:31:00+02:00</time>
      </trkpt>
      <trkpt lat="45.28975" lon="6.52507">
        <ele>2121</ele>
        <time>2023-05-06T13:31:35+02:00</time>
      </trkpt>
      <trkpt lat="45.28985" lon="6.52523">
        <ele>2122</ele>
        <time>2023-05-06T13:32:35+02:00</time>
      </trkpt>
      <trkpt lat="45.28994" lon="6.5254">
        <ele>2126</ele>
        <time>2023-05-06T13:33:04+02:00</time>
      </trkpt>
      <trkpt lat="45.29002" lon="6.52559">
        <ele>2127</ele>
        <time>2023-05-06T13:33:24+02:00</time>
      </trkpt>
      <trkpt lat="45.29009" lon="6.52578">
        <ele>2128</ele>
        <time>2023-05-06T13:33:44+02:00</time>
      </trkpt>
      <trkpt lat="45.29014" lon="6.52597">
        <ele>2126</ele>
        <time>2023-05-06T13:34:02+02:00</time>
      </trkpt>
      <trkpt lat="45.29024" lon="6.5261">
        <ele>2126</ele>
        <time>2023-05-06T13:34:39+02:00</time>
      </trkpt>
      <trkpt lat="45.29031" lon="6.52628">
        <ele>2119</ele>
        <time>2023-05-06T13:36:01+02:00</time>
      </trkpt>
      <trkpt lat="45.29043" lon="6.52642">
        <ele>2119</ele>
        <time>2023-05-06T13:36:21+02:00</time>
      </trkpt>
      <trkpt lat="45.29054" lon="6.52655">
        <ele>2115</ele>
        <time>2023-05-06T13:36:54+02:00</time>
      </trkpt>
      <trkpt lat="45.29062" lon="6.52672">
        <ele>2115</ele>
        <time>2023-05-06T13:37:10+02:00</time>
      </trkpt>
      <trkpt lat="45.29068" lon="6.52689">
        <ele>2116</ele>
        <time>2023-05-06T13:37:25+02:00</time>
      </trkpt>
      <trkpt lat="45.29078" lon="6.52705">
        <ele>2117</ele>
        <time>2023-05-06T13:37:44+02:00</time>
      </trkpt>
      <trkpt lat="45.29089" lon="6.5272">
        <ele>2116</ele>
        <time>2023-05-06T13:38:01+02:00</time>
      </trkpt>
      <trkpt lat="45.29102" lon="6.5273">
        <ele>2115</ele>
        <time>2023-05-06T13:38:20+02:00</time>
      </trkpt>
      <trkpt lat="45.29117" lon="6.52735">
        <ele>2115</ele>
        <time>2023-05-06T13:39:13+02:00</time>
      </trkpt>
      <trkpt lat="45.29129" lon="6.52748">
        <ele>2112</ele>
        <time>2023-05-06T13:39:44+02:00</time>
      </trkpt>
      <trkpt lat="45.29142" lon="6.52754">
        <ele>2109</ele>
        <time>2023-05-06T13:40:11+02:00</time>
      </trkpt>
      <trkpt lat="45.29155" lon="6.52762">
        <ele>2107</ele>
        <time>2023-05-06T13:40:26+02:00</time>
      </trkpt>
      <trkpt lat="45.29166" lon="6.52774">
        <ele>2107</ele>
        <time>2023-05-06T13:40:39+02:00</time>
      </trkpt>
      <trkpt lat="45.29174" lon="6.52791">
        <ele>2106</ele>
        <time>2023-05-06T13:40:56+02:00</time>
      </trkpt>
      <trkpt lat="45.29181" lon="6.52809">
        <ele>2105</ele>
        <time>2023-05-06T13:41:30+02:00</time>
      </trkpt>
      <trkpt lat="45.29191" lon="6.52825">
        <ele>2106</ele>
        <time>2023-05-06T13:41:47+02:00</time>
      </trkpt>
      <trkpt lat="45.29197" lon="6.52844">
        <ele>2107</ele>
        <time>2023-05-06T13:42:06+02:00</time>
      </trkpt>
      <trkpt lat="45.29207" lon="6.52859">
        <ele>2106</ele>
        <time>2023-05-06T13:42:27+02:00</time>
      </trkpt>
      <trkpt lat="45.29214" lon="6.52877">
        <ele>2105</ele>
        <time>2023-05-06T13:42:46+02:00</time>
      </trkpt>
      <trkpt lat="45.29221" lon="6.52895">
        <ele>2105</ele>
        <time>2023-05-06T13:43:02+02:00</time>
      </trkpt>
      <trkpt lat="45.29231" lon="6.52912">
        <ele>2105</ele>
        <time>2023-05-06T13:43:23+02:00</time>
      </trkpt>
      <trkpt lat="45.29238" lon="6.52929">
        <ele>2105</ele>
        <time>2023-05-06T13:43:46+02:00</time>
      </trkpt>
      <trkpt lat="45.29245" lon="6.52946">
        <ele>2105</ele>
        <time>2023-05-06T13:44:00+02:00</time>
      </trkpt>
      <trkpt lat="45.29255" lon="6.52961">
        <ele>2105</ele>
        <time>2023-05-06T13:44:47+02:00</time>
      </trkpt>
      <trkpt lat="45.29269" lon="6.52969">
        <ele>2107</ele>
        <time>2023-05-06T13:45:31+02:00</time>
      </trkpt>
      <trkpt lat="45.2927" lon="6.52993">
        <ele>2105</ele>
        <time>2023-05-06T13:46:58+02:00</time>
      </trkpt>
      <trkpt lat="45.29282" lon="6.53005">
        <ele>2105</ele>
        <time>2023-05-06T13:47:14+02:00</time>
      </trkpt>
      <trkpt lat="45.29294" lon="6.53017">
        <ele>2103</ele>
        <time>2023-05-06T13:47:35+02:00</time>
      </trkpt>
      <trkpt lat="45.29295" lon="6.53037">
        <ele>2097</ele>
        <time>2023-05-06T13:47:59+02:00</time>
      </trkpt>
      <trkpt lat="45.29307" lon="6.53048">
        <ele>2094</ele>
        <time>2023-05-06T13:48:41+02:00</time>
      </trkpt>
      <trkpt lat="45.29321" lon="6.53052">
        <ele>2096</ele>
        <time>2023-05-06T13:49:28+02:00</time>
      </trkpt>
      <trkpt lat="45.29332" lon="6.53062">
        <ele>2097</ele>
        <time>2023-05-06T13:49:42+02:00</time>
      </trkpt>
      <trkpt lat="45.29338" lon="6.53082">
        <ele>2096</ele>
        <time>2023-05-06T13:49:59+02:00</time>
      </trkpt>
      <trkpt lat="45.29349" lon="6.53094">
        <ele>2095</ele>
        <time>2023-05-06T13:50:12+02:00</time>
      </trkpt>
      <trkpt lat="45.29359" lon="6.53108">
        <ele>2093</ele>
        <time>2023-05-06T13:50:56+02:00</time>
      </trkpt>
      <trkpt lat="45.29361" lon="6.53129">
        <ele>2091</ele>
        <time>2023-05-06T13:51:07+02:00</time>
      </trkpt>
      <trkpt lat="45.29365" lon="6.53148">
        <ele>2090</ele>
        <time>2023-05-06T13:51:21+02:00</time>
      </trkpt>
      <trkpt lat="45.29354" lon="6.53161">
        <ele>2085</ele>
        <time>2023-05-06T13:51:45+02:00</time>
      </trkpt>
      <trkpt lat="45.2937" lon="6.53156">
        <ele>2088</ele>
        <time>2023-05-06T13:53:17+02:00</time>
      </trkpt>
      <trkpt lat="45.29383" lon="6.53167">
        <ele>2089</ele>
        <time>2023-05-06T13:53:33+02:00</time>
      </trkpt>
      <trkpt lat="45.29397" lon="6.53177">
        <ele>2088</ele>
        <time>2023-05-06T13:53:50+02:00</time>
      </trkpt>
      <trkpt lat="45.2941" lon="6.53187">
        <ele>2086</ele>
        <time>2023-05-06T13:54:14+02:00</time>
      </trkpt>
      <trkpt lat="45.29424" lon="6.53198">
        <ele>2084</ele>
        <time>2023-05-06T13:54:31+02:00</time>
      </trkpt>
      <trkpt lat="45.29436" lon="6.53209">
        <ele>2082</ele>
        <time>2023-05-06T13:54:45+02:00</time>
      </trkpt>
      <trkpt lat="45.29446" lon="6.53224">
        <ele>2079</ele>
        <time>2023-05-06T13:55:09+02:00</time>
      </trkpt>
      <trkpt lat="45.2946" lon="6.5323">
        <ele>2076</ele>
        <time>2023-05-06T13:55:25+02:00</time>
      </trkpt>
      <trkpt lat="45.29474" lon="6.53239">
        <ele>2071</ele>
        <time>2023-05-06T13:55:48+02:00</time>
      </trkpt>
      <trkpt lat="45.29485" lon="6.53249">
        <ele>2067</ele>
        <time>2023-05-06T13:56:07+02:00</time>
      </trkpt>
      <trkpt lat="45.29491" lon="6.53269">
        <ele>2066</ele>
        <time>2023-05-06T13:56:20+02:00</time>
      </trkpt>
      <trkpt lat="45.29499" lon="6.53285">
        <ele>2065</ele>
        <time>2023-05-06T13:57:04+02:00</time>
      </trkpt>
      <trkpt lat="45.29514" lon="6.53286">
        <ele>2063</ele>
        <time>2023-05-06T13:57:41+02:00</time>
      </trkpt>
      <trkpt lat="45.29528" lon="6.53292">
        <ele>2060</ele>
        <time>2023-05-06T13:57:54+02:00</time>
      </trkpt>
      <trkpt lat="45.29541" lon="6.53305">
        <ele>2058</ele>
        <time>2023-05-06T13:58:08+02:00</time>
      </trkpt>
      <trkpt lat="45.29553" lon="6.53314">
        <ele>2055</ele>
        <time>2023-05-06T13:58:19+02:00</time>
      </trkpt>
      <trkpt lat="45.29566" lon="6.53325">
        <ele>2052</ele>
        <time>2023-05-06T13:58:35+02:00</time>
      </trkpt>
      <trkpt lat="45.29578" lon="6.53337">
        <ele>2048</ele>
        <time>2023-05-06T13:58:51+02:00</time>
      </trkpt>
      <trkpt lat="45.29589" lon="6.53352">
        <ele>2044</ele>
        <time>2023-05-06T13:59:12+02:00</time>
      </trkpt>
      <trkpt lat="45.29603" lon="6.53361">
        <ele>2042</ele>
        <time>2023-05-06T13:59:26+02:00</time>
      </trkpt>
      <trkpt lat="45.29617" lon="6.53365">
        <ele>2042</ele>
        <time>2023-05-06T13:59:39+02:00</time>
      </trkpt>
      <trkpt lat="45.29629" lon="6.53378">
        <ele>2041</ele>
        <time>2023-05-06T13:59:56+02:00</time>
      </trkpt>
      <trkpt lat="45.2964" lon="6.5339">
        <ele>2043</ele>
        <time>2023-05-06T14:00:12+02:00</time>
      </trkpt>
      <trkpt lat="45.29651" lon="6.53402">
        <ele>2042</ele>
        <time>2023-05-06T14:00:25+02:00</time>
      </trkpt>
      <trkpt lat="45.29664" lon="6.53414">
        <ele>2042</ele>
        <time>2023-05-06T14:00:43+02:00</time>
      </trkpt>
      <trkpt lat="45.2968" lon="6.53417">
        <ele>2041</ele>
        <time>2023-05-06T14:01:00+02:00</time>
      </trkpt>
      <trkpt lat="45.29693" lon="6.53421">
        <ele>2040</ele>
        <time>2023-05-06T14:01:16+02:00</time>
      </trkpt>
      <trkpt lat="45.29709" lon="6.53425">
        <ele>2037</ele>
        <time>2023-05-06T14:01:35+02:00</time>
      </trkpt>
      <trkpt lat="45.29722" lon="6.53428">
        <ele>2034</ele>
        <time>2023-05-06T14:01:53+02:00</time>
      </trkpt>
      <trkpt lat="45.29736" lon="6.53432">
        <ele>2031</ele>
        <time>2023-05-06T14:02:12+02:00</time>
      </trkpt>
      <trkpt lat="45.2975" lon="6.53433">
        <ele>2029</ele>
        <time>2023-05-06T14:02:34+02:00</time>
      </trkpt>
      <trkpt lat="45.29763" lon="6.53424">
        <ele>2026</ele>
        <time>2023-05-06T14:02:50+02:00</time>
      </trkpt>
      <trkpt lat="45.29778" lon="6.5342">
        <ele>2024</ele>
        <time>2023-05-06T14:03:08+02:00</time>
      </trkpt>
      <trkpt lat="45.29791" lon="6.53411">
        <ele>2022</ele>
        <time>2023-05-06T14:03:25+02:00</time>
      </trkpt>
      <trkpt lat="45.29806" lon="6.53409">
        <ele>2021</ele>
        <time>2023-05-06T14:03:50+02:00</time>
      </trkpt>
      <trkpt lat="45.29821" lon="6.5341">
        <ele>2020</ele>
        <time>2023-05-06T14:04:06+02:00</time>
      </trkpt>
      <trkpt lat="45.29836" lon="6.53412">
        <ele>2016</ele>
        <time>2023-05-06T14:04:21+02:00</time>
      </trkpt>
      <trkpt lat="45.2985" lon="6.53416">
        <ele>2011</ele>
        <time>2023-05-06T14:04:42+02:00</time>
      </trkpt>
      <trkpt lat="45.29864" lon="6.53424">
        <ele>2009</ele>
        <time>2023-05-06T14:04:56+02:00</time>
      </trkpt>
      <trkpt lat="45.29876" lon="6.53435">
        <ele>2005</ele>
        <time>2023-05-06T14:05:12+02:00</time>
      </trkpt>
      <trkpt lat="45.29889" lon="6.53428">
        <ele>2002</ele>
        <time>2023-05-06T14:05:29+02:00</time>
      </trkpt>
      <trkpt lat="45.29894" lon="6.53409">
        <ele>1998</ele>
        <time>2023-05-06T14:05:47+02:00</time>
      </trkpt>
      <trkpt lat="45.29902" lon="6.5339">
        <ele>2000</ele>
        <time>2023-05-06T14:06:07+02:00</time>
      </trkpt>
      <trkpt lat="45.29917" lon="6.53382">
        <ele>2002</ele>
        <time>2023-05-06T14:06:24+02:00</time>
      </trkpt>
      <trkpt lat="45.29933" lon="6.53378">
        <ele>2002</ele>
        <time>2023-05-06T14:06:39+02:00</time>
      </trkpt>
      <trkpt lat="45.29948" lon="6.53383">
        <ele>2001</ele>
        <time>2023-05-06T14:06:53+02:00</time>
      </trkpt>
      <trkpt lat="45.29953" lon="6.53401">
        <ele>2000</ele>
        <time>2023-05-06T14:07:08+02:00</time>
      </trkpt>
      <trkpt lat="45.29962" lon="6.5342">
        <ele>1999</ele>
        <time>2023-05-06T14:07:24+02:00</time>
      </trkpt>
      <trkpt lat="45.29973" lon="6.53436">
        <ele>1998</ele>
        <time>2023-05-06T14:07:41+02:00</time>
      </trkpt>
      <trkpt lat="45.29984" lon="6.53451">
        <ele>1996</ele>
        <time>2023-05-06T14:07:55+02:00</time>
      </trkpt>
      <trkpt lat="45.29995" lon="6.53467">
        <ele>1995</ele>
        <time>2023-05-06T14:08:11+02:00</time>
      </trkpt>
      <trkpt lat="45.30002" lon="6.53484">
        <ele>1994</ele>
        <time>2023-05-06T14:08:28+02:00</time>
      </trkpt>
      <trkpt lat="45.30007" lon="6.53504">
        <ele>1994</ele>
        <time>2023-05-06T14:08:44+02:00</time>
      </trkpt>
      <trkpt lat="45.30012" lon="6.53526">
        <ele>1994</ele>
        <time>2023-05-06T14:09:04+02:00</time>
      </trkpt>
      <trkpt lat="45.30021" lon="6.53541">
        <ele>1991</ele>
        <time>2023-05-06T14:09:20+02:00</time>
      </trkpt>
      <trkpt lat="45.3003" lon="6.53559">
        <ele>1988</ele>
        <time>2023-05-06T14:09:35+02:00</time>
      </trkpt>
      <trkpt lat="45.30041" lon="6.53571">
        <ele>1987</ele>
        <time>2023-05-06T14:09:49+02:00</time>
      </trkpt>
      <trkpt lat="45.3005" lon="6.53585">
        <ele>1983</ele>
        <time>2023-05-06T14:10:05+02:00</time>
      </trkpt>
      <trkpt lat="45.30063" lon="6.53599">
        <ele>1981</ele>
        <time>2023-05-06T14:10:19+02:00</time>
      </trkpt>
      <trkpt lat="45.30077" lon="6.53609">
        <ele>1979</ele>
        <time>2023-05-06T14:10:33+02:00</time>
      </trkpt>
      <trkpt lat="45.30089" lon="6.53616">
        <ele>1978</ele>
        <time>2023-05-06T14:10:50+02:00</time>
      </trkpt>
      <trkpt lat="45.30106" lon="6.53618">
        <ele>1977</ele>
        <time>2023-05-06T14:11:06+02:00</time>
      </trkpt>
      <trkpt lat="45.30119" lon="6.53616">
        <ele>1977</ele>
        <time>2023-05-06T14:11:20+02:00</time>
      </trkpt>
      <trkpt lat="45.30133" lon="6.53624">
        <ele>1975</ele>
        <time>2023-05-06T14:11:33+02:00</time>
      </trkpt>
      <trkpt lat="45.30143" lon="6.53637">
        <ele>1974</ele>
        <time>2023-05-06T14:11:48+02:00</time>
      </trkpt>
      <trkpt lat="45.30157" lon="6.53651">
        <ele>1973</ele>
        <time>2023-05-06T14:12:04+02:00</time>
      </trkpt>
      <trkpt lat="45.3017" lon="6.53665">
        <ele>1971</ele>
        <time>2023-05-06T14:12:20+02:00</time>
      </trkpt>
      <trkpt lat="45.30181" lon="6.53679">
        <ele>1970</ele>
        <time>2023-05-06T14:12:34+02:00</time>
      </trkpt>
      <trkpt lat="45.30191" lon="6.53694">
        <ele>1968</ele>
        <time>2023-05-06T14:12:53+02:00</time>
      </trkpt>
      <trkpt lat="45.30203" lon="6.53703">
        <ele>1967</ele>
        <time>2023-05-06T14:13:06+02:00</time>
      </trkpt>
      <trkpt lat="45.30216" lon="6.53708">
        <ele>1964</ele>
        <time>2023-05-06T14:13:23+02:00</time>
      </trkpt>
      <trkpt lat="45.30229" lon="6.53716">
        <ele>1962</ele>
        <time>2023-05-06T14:13:37+02:00</time>
      </trkpt>
      <trkpt lat="45.30244" lon="6.53718">
        <ele>1959</ele>
        <time>2023-05-06T14:13:53+02:00</time>
      </trkpt>
      <trkpt lat="45.30258" lon="6.53714">
        <ele>1959</ele>
        <time>2023-05-06T14:14:08+02:00</time>
      </trkpt>
      <trkpt lat="45.30273" lon="6.53706">
        <ele>1959</ele>
        <time>2023-05-06T14:14:24+02:00</time>
      </trkpt>
      <trkpt lat="45.30288" lon="6.53707">
        <ele>1959</ele>
        <time>2023-05-06T14:14:37+02:00</time>
      </trkpt>
      <trkpt lat="45.303" lon="6.53721">
        <ele>1957</ele>
        <time>2023-05-06T14:14:55+02:00</time>
      </trkpt>
      <trkpt lat="45.30312" lon="6.53732">
        <ele>1952</ele>
        <time>2023-05-06T14:15:12+02:00</time>
      </trkpt>
      <trkpt lat="45.30324" lon="6.53743">
        <ele>1949</ele>
        <time>2023-05-06T14:15:26+02:00</time>
      </trkpt>
      <trkpt lat="45.30337" lon="6.53742">
        <ele>1950</ele>
        <time>2023-05-06T14:15:39+02:00</time>
      </trkpt>
      <trkpt lat="45.30352" lon="6.5374">
        <ele>1951</ele>
        <time>2023-05-06T14:15:53+02:00</time>
      </trkpt>
      <trkpt lat="45.30365" lon="6.53737">
        <ele>1951</ele>
        <time>2023-05-06T14:16:04+02:00</time>
      </trkpt>
      <trkpt lat="45.30381" lon="6.5374">
        <ele>1950</ele>
        <time>2023-05-06T14:16:18+02:00</time>
      </trkpt>
      <trkpt lat="45.30397" lon="6.53736">
        <ele>1949</ele>
        <time>2023-05-06T14:16:32+02:00</time>
      </trkpt>
      <trkpt lat="45.30413" lon="6.5373">
        <ele>1948</ele>
        <time>2023-05-06T14:16:49+02:00</time>
      </trkpt>
      <trkpt lat="45.30426" lon="6.53727">
        <ele>1948</ele>
        <time>2023-05-06T14:17:02+02:00</time>
      </trkpt>
      <trkpt lat="45.30438" lon="6.53716">
        <ele>1948</ele>
        <time>2023-05-06T14:17:18+02:00</time>
      </trkpt>
      <trkpt lat="45.30452" lon="6.53713">
        <ele>1946</ele>
        <time>2023-05-06T14:17:32+02:00</time>
      </trkpt>
      <trkpt lat="45.30467" lon="6.53712">
        <ele>1944</ele>
        <time>2023-05-06T14:17:45+02:00</time>
      </trkpt>
      <trkpt lat="45.3048" lon="6.53718">
        <ele>1939</ele>
        <time>2023-05-06T14:18:09+02:00</time>
      </trkpt>
      <trkpt lat="45.30497" lon="6.53723">
        <ele>1933</ele>
        <time>2023-05-06T14:18:31+02:00</time>
      </trkpt>
      <trkpt lat="45.30511" lon="6.5372">
        <ele>1931</ele>
        <time>2023-05-06T14:18:41+02:00</time>
      </trkpt>
      <trkpt lat="45.30525" lon="6.5372">
        <ele>1926</ele>
        <time>2023-05-06T14:18:57+02:00</time>
      </trkpt>
      <trkpt lat="45.30539" lon="6.53708">
        <ele>1921</ele>
        <time>2023-05-06T14:19:11+02:00</time>
      </trkpt>
      <trkpt lat="45.30552" lon="6.53715">
        <ele>1919</ele>
        <time>2023-05-06T14:19:22+02:00</time>
      </trkpt>
      <trkpt lat="45.30565" lon="6.53725">
        <ele>1916</ele>
        <time>2023-05-06T14:19:35+02:00</time>
      </trkpt>
      <trkpt lat="45.30579" lon="6.53728">
        <ele>1915</ele>
        <time>2023-05-06T14:19:46+02:00</time>
      </trkpt>
      <trkpt lat="45.30594" lon="6.53733">
        <ele>1912</ele>
        <time>2023-05-06T14:20:00+02:00</time>
      </trkpt>
      <trkpt lat="45.30609" lon="6.53731">
        <ele>1911</ele>
        <time>2023-05-06T14:20:13+02:00</time>
      </trkpt>
      <trkpt lat="45.30623" lon="6.53735">
        <ele>1907</ele>
        <time>2023-05-06T14:20:30+02:00</time>
      </trkpt>
      <trkpt lat="45.30626" lon="6.53756">
        <ele>1900</ele>
        <time>2023-05-06T14:20:54+02:00</time>
      </trkpt>
      <trkpt lat="45.30639" lon="6.5377">
        <ele>1897</ele>
        <time>2023-05-06T14:21:07+02:00</time>
      </trkpt>
      <trkpt lat="45.30651" lon="6.53781">
        <ele>1893</ele>
        <time>2023-05-06T14:21:18+02:00</time>
      </trkpt>
      <trkpt lat="45.30658" lon="6.53799">
        <ele>1891</ele>
        <time>2023-05-06T14:21:30+02:00</time>
      </trkpt>
      <trkpt lat="45.30671" lon="6.53811">
        <ele>1887</ele>
        <time>2023-05-06T14:22:02+02:00</time>
      </trkpt>
      <trkpt lat="45.30683" lon="6.53821">
        <ele>1885</ele>
        <time>2023-05-06T14:23:23+02:00</time>
      </trkpt>
      <trkpt lat="45.30695" lon="6.53833">
        <ele>1883</ele>
        <time>2023-05-06T14:23:38+02:00</time>
      </trkpt>
      <trkpt lat="45.30709" lon="6.5384">
        <ele>1881</ele>
        <time>2023-05-06T14:23:51+02:00</time>
      </trkpt>
      <trkpt lat="45.30724" lon="6.5385">
        <ele>1879</ele>
        <time>2023-05-06T14:24:08+02:00</time>
      </trkpt>
      <trkpt lat="45.3074" lon="6.53848">
        <ele>1878</ele>
        <time>2023-05-06T14:24:20+02:00</time>
      </trkpt>
      <trkpt lat="45.30756" lon="6.53853">
        <ele>1878</ele>
        <time>2023-05-06T14:24:35+02:00</time>
      </trkpt>
      <trkpt lat="45.30771" lon="6.53849">
        <ele>1878</ele>
        <time>2023-05-06T14:24:51+02:00</time>
      </trkpt>
      <trkpt lat="45.30786" lon="6.53848">
        <ele>1881</ele>
        <time>2023-05-06T14:25:08+02:00</time>
      </trkpt>
      <trkpt lat="45.30803" lon="6.53852">
        <ele>1879</ele>
        <time>2023-05-06T14:25:23+02:00</time>
      </trkpt>
      <trkpt lat="45.30817" lon="6.53847">
        <ele>1879</ele>
        <time>2023-05-06T14:25:35+02:00</time>
      </trkpt>
      <trkpt lat="45.30833" lon="6.53844">
        <ele>1878</ele>
        <time>2023-05-06T14:26:07+02:00</time>
      </trkpt>
      <trkpt lat="45.30849" lon="6.53845">
        <ele>1878</ele>
        <time>2023-05-06T14:26:20+02:00</time>
      </trkpt>
      <trkpt lat="45.30862" lon="6.53852">
        <ele>1878</ele>
        <time>2023-05-06T14:26:33+02:00</time>
      </trkpt>
      <trkpt lat="45.30876" lon="6.53844">
        <ele>1877</ele>
        <time>2023-05-06T14:26:47+02:00</time>
      </trkpt>
      <trkpt lat="45.30889" lon="6.53833">
        <ele>1874</ele>
        <time>2023-05-06T14:27:02+02:00</time>
      </trkpt>
      <trkpt lat="45.30903" lon="6.53835">
        <ele>1872</ele>
        <time>2023-05-06T14:27:13+02:00</time>
      </trkpt>
      <trkpt lat="45.30917" lon="6.53829">
        <ele>1869</ele>
        <time>2023-05-06T14:27:27+02:00</time>
      </trkpt>
      <trkpt lat="45.30927" lon="6.53815">
        <ele>1867</ele>
        <time>2023-05-06T14:27:39+02:00</time>
      </trkpt>
      <trkpt lat="45.30941" lon="6.53809">
        <ele>1864</ele>
        <time>2023-05-06T14:27:55+02:00</time>
      </trkpt>
      <trkpt lat="45.30955" lon="6.53806">
        <ele>1860</ele>
        <time>2023-05-06T14:28:13+02:00</time>
      </trkpt>
      <trkpt lat="45.3097" lon="6.53802">
        <ele>1860</ele>
        <time>2023-05-06T14:28:33+02:00</time>
      </trkpt>
      <trkpt lat="45.30985" lon="6.53806">
        <ele>1858</ele>
        <time>2023-05-06T14:28:49+02:00</time>
      </trkpt>
      <trkpt lat="45.31" lon="6.53798">
        <ele>1855</ele>
        <time>2023-05-06T14:29:05+02:00</time>
      </trkpt>
      <trkpt lat="45.31011" lon="6.53789">
        <ele>1852</ele>
        <time>2023-05-06T14:29:56+02:00</time>
      </trkpt>
      <trkpt lat="45.31022" lon="6.53774">
        <ele>1851</ele>
        <time>2023-05-06T14:30:09+02:00</time>
      </trkpt>
      <trkpt lat="45.3103" lon="6.53757">
        <ele>1850</ele>
        <time>2023-05-06T14:30:26+02:00</time>
      </trkpt>
      <trkpt lat="45.31042" lon="6.53746">
        <ele>1849</ele>
        <time>2023-05-06T14:30:40+02:00</time>
      </trkpt>
      <trkpt lat="45.31056" lon="6.53744">
        <ele>1846</ele>
        <time>2023-05-06T14:30:52+02:00</time>
      </trkpt>
      <trkpt lat="45.31071" lon="6.53744">
        <ele>1845</ele>
        <time>2023-05-06T14:31:08+02:00</time>
      </trkpt>
      <trkpt lat="45.31085" lon="6.53754">
        <ele>1843</ele>
        <time>2023-05-06T14:31:24+02:00</time>
      </trkpt>
      <trkpt lat="45.31101" lon="6.53756">
        <ele>1841</ele>
        <time>2023-05-06T14:31:38+02:00</time>
      </trkpt>
      <trkpt lat="45.31115" lon="6.5376">
        <ele>1840</ele>
        <time>2023-05-06T14:31:51+02:00</time>
      </trkpt>
      <trkpt lat="45.31128" lon="6.53771">
        <ele>1837</ele>
        <time>2023-05-06T14:32:07+02:00</time>
      </trkpt>
      <trkpt lat="45.31141" lon="6.53777">
        <ele>1834</ele>
        <time>2023-05-06T14:32:23+02:00</time>
      </trkpt>
      <trkpt lat="45.31155" lon="6.53784">
        <ele>1830</ele>
        <time>2023-05-06T14:32:39+02:00</time>
      </trkpt>
      <trkpt lat="45.31168" lon="6.53789">
        <ele>1828</ele>
        <time>2023-05-06T14:32:53+02:00</time>
      </trkpt>
      <trkpt lat="45.31183" lon="6.53798">
        <ele>1827</ele>
        <time>2023-05-06T14:33:06+02:00</time>
      </trkpt>
      <trkpt lat="45.31195" lon="6.53808">
        <ele>1826</ele>
        <time>2023-05-06T14:33:17+02:00</time>
      </trkpt>
      <trkpt lat="45.31208" lon="6.53818">
        <ele>1822</ele>
        <time>2023-05-06T14:33:31+02:00</time>
      </trkpt>
      <trkpt lat="45.31224" lon="6.53823">
        <ele>1819</ele>
        <time>2023-05-06T14:33:47+02:00</time>
      </trkpt>
      <trkpt lat="45.31235" lon="6.53835">
        <ele>1816</ele>
        <time>2023-05-06T14:35:03+02:00</time>
      </trkpt>
      <trkpt lat="45.31247" lon="6.53849">
        <ele>1816</ele>
        <time>2023-05-06T14:35:17+02:00</time>
      </trkpt>
      <trkpt lat="45.31263" lon="6.53855">
        <ele>1816</ele>
        <time>2023-05-06T14:35:34+02:00</time>
      </trkpt>
      <trkpt lat="45.31276" lon="6.53856">
        <ele>1816</ele>
        <time>2023-05-06T14:35:48+02:00</time>
      </trkpt>
      <trkpt lat="45.31291" lon="6.53852">
        <ele>1816</ele>
        <time>2023-05-06T14:36:03+02:00</time>
      </trkpt>
      <trkpt lat="45.31305" lon="6.53846">
        <ele>1817</ele>
        <time>2023-05-06T14:36:17+02:00</time>
      </trkpt>
      <trkpt lat="45.31319" lon="6.53845">
        <ele>1819</ele>
        <time>2023-05-06T14:36:32+02:00</time>
      </trkpt>
      <trkpt lat="45.31333" lon="6.53843">
        <ele>1820</ele>
        <time>2023-05-06T14:36:45+02:00</time>
      </trkpt>
      <trkpt lat="45.31347" lon="6.53841">
        <ele>1821</ele>
        <time>2023-05-06T14:36:59+02:00</time>
      </trkpt>
      <trkpt lat="45.31361" lon="6.53845">
        <ele>1822</ele>
        <time>2023-05-06T14:37:16+02:00</time>
      </trkpt>
      <trkpt lat="45.31375" lon="6.53844">
        <ele>1822</ele>
        <time>2023-05-06T14:37:28+02:00</time>
      </trkpt>
      <trkpt lat="45.3139" lon="6.53842">
        <ele>1823</ele>
        <time>2023-05-06T14:37:41+02:00</time>
      </trkpt>
      <trkpt lat="45.31377" lon="6.53849">
        <ele>1823</ele>
        <time>2023-05-06T14:38:11+02:00</time>
      </trkpt>
      <trkpt lat="45.31363" lon="6.53853">
        <ele>1822</ele>
        <time>2023-05-06T14:38:24+02:00</time>
      </trkpt>
      <trkpt lat="45.31349" lon="6.53859">
        <ele>1822</ele>
        <time>2023-05-06T14:38:44+02:00</time>
      </trkpt>
      <trkpt lat="45.31336" lon="6.53874">
        <ele>1822</ele>
        <time>2023-05-06T14:39:01+02:00</time>
      </trkpt>
      <trkpt lat="45.31328" lon="6.53893">
        <ele>1824</ele>
        <time>2023-05-06T14:39:15+02:00</time>
      </trkpt>
      <trkpt lat="45.31332" lon="6.53913">
        <ele>1825</ele>
        <time>2023-05-06T14:39:31+02:00</time>
      </trkpt>
      <trkpt lat="45.31331" lon="6.53933">
        <ele>1831</ele>
        <time>2023-05-06T14:40:07+02:00</time>
      </trkpt>
    </trkseg>
  </trk>
</gpx>